Time;durP1;ratioP1;P1;durP2;ratioP2;P2;SDS_P1;SDS_P2;PMS_P1;PMS_P2;Temp;Humidity;BMP_temperature;BMP_pressure;BME280_temperature;BME280_humidity;BME280_pressure;Samples;Min_cycle;Max_cycle;Signal;HPM_P1;HPM_P2
2023/07/18 08:49:38;;;;;;;1.50;0.85;;;;;;;18.28;56.37;101808.28;5172247;27;20383;-73
2023/07/18 08:52:04;;;;;;;2.17;0.60;;;;;;;18.29;56.97;101805.28;5153813;27;20038;-72
2023/07/18 08:54:29;;;;;;;2.40;0.98;;;;;;;18.39;55.92;101799.94;5172218;27;20032;-71
2023/07/18 08:56:56;;;;;;;0.95;0.68;;;;;;;18.44;55.71;101796.44;5172394;27;20113;-71
2023/07/18 08:59:22;;;;;;;4.43;0.98;;;;;;;18.46;53.29;101794.25;5172106;27;20026;-70
2023/07/18 09:01:51;;;;;;;1.27;0.75;;;;;;;18.51;53.54;101791.59;5158548;27;20023;-72
2023/07/18 09:04:18;;;;;;;2.97;0.80;;;;;;;18.66;54.71;101790.09;5171761;27;20117;-72
2023/07/18 09:06:48;;;;;;;4.28;1.15;;;;;;;18.62;54.47;101789.81;5172572;27;20038;-71
2023/07/18 09:09:16;;;;;;;4.00;1.10;;;;;;;18.73;55.80;101786.06;5171946;27;20034;-70
2023/07/18 09:11:55;;;;;;;2.88;0.88;;;;;;;18.80;55.36;101783.16;5172064;27;20026;-70
2023/07/18 09:14:31;;;;;;;3.05;1.00;;;;;;;18.93;56.07;101771.81;5172071;27;20037;-70
2023/07/18 09:17:03;;;;;;;2.88;1.20;;;;;;;19.00;54.38;101787.22;5164873;27;20023;-72
2023/07/18 09:19:48;;;;;;;4.18;1.10;;;;;;;19.09;55.67;101774.69;5150897;27;20035;-69
2023/07/18 09:22:19;;;;;;;3.22;1.13;;;;;;;19.13;53.80;101765.69;5131778;27;20058;-72
2023/07/18 09:24:46;;;;;;;1.95;1.00;;;;;;;19.28;54.57;101766.91;5150673;27;20043;-72
2023/07/18 09:27:18;;;;;;;2.20;0.90;;;;;;;19.24;54.37;101760.28;5150813;27;20031;-72
2023/07/18 09:29:45;;;;;;;3.72;0.95;;;;;;;19.29;54.46;101757.56;5150935;27;20046;-72
2023/07/18 09:32:24;;;;;;;5.53;1.00;;;;;;;19.39;54.44;101759.59;5134838;27;20022;-71
2023/07/18 09:34:57;;;;;;;2.17;1.02;;;;;;;19.40;53.54;101756.59;5163115;27;20062;-71
2023/07/18 09:37:23;;;;;;;2.08;0.75;;;;;;;19.51;53.59;101746.50;5165950;27;20022;-71
2023/07/18 09:39:49;;;;;;;1.95;0.90;;;;;;;19.68;52.64;101751.00;5130061;27;20175;-71
2023/07/18 09:42:19;;;;;;;4.28;1.13;;;;;;;19.76;53.50;101761.50;5150330;27;20035;-70
2023/07/18 09:44:49;;;;;;;3.95;1.25;;;;;;;19.85;53.33;101754.44;5148687;27;20106;-71
2023/07/18 09:47:16;;;;;;;4.78;1.00;;;;;;;19.82;53.39;101753.06;5149256;27;20030;-71
2023/07/18 09:49:45;;;;;;;1.70;0.90;;;;;;;19.63;52.44;101755.38;5145791;27;20039;-71
2023/07/18 09:52:11;;;;;;;2.97;0.93;;;;;;;19.61;52.71;101760.31;5150394;27;20031;-71
2023/07/18 09:54:39;;;;;;;2.72;1.23;;;;;;;19.64;51.78;101758.94;5134788;27;20042;-71
2023/07/18 09:57:12;;;;;;;2.90;0.77;;;;;;;19.59;53.10;101762.47;5150431;27;20031;-71
2023/07/18 09:59:39;;;;;;;1.35;0.70;;;;;;;19.74;52.76;101752.69;5123653;27;20027;-78
2023/07/18 10:02:06;;;;;;;4.35;0.98;;;;;;;19.74;51.59;101749.97;5128301;27;20031;-73
2023/07/18 10:04:34;;;;;;;3.50;1.00;;;;;;;19.86;52.27;101738.81;5136120;27;20028;-72
2023/07/18 10:07:01;;;;;;;3.20;1.10;;;;;;;19.93;51.77;101744.84;5134391;27;20169;-72
2023/07/18 10:09:27;;;;;;;1.77;0.93;;;;;;;19.95;51.28;101742.69;5131985;27;20436;-70
2023/07/18 10:11:58;;;;;;;7.80;1.15;;;;;;;20.05;51.62;101736.41;5133858;27;20027;-69
2023/07/18 10:14:46;;;;;;;4.05;0.90;;;;;;;20.03;50.73;101728.44;5135780;27;20458;-68
2023/07/18 10:17:25;;;;;;;3.95;1.52;;;;;;;20.12;51.30;101728.75;5117936;27;20031;-71
2023/07/18 10:19:50;;;;;;;2.33;1.00;;;;;;;20.28;51.36;101719.47;5107482;28;20027;-70
2023/07/18 10:22:32;;;;;;;1.95;0.80;;;;;;;20.29;51.88;101712.06;5120792;27;20034;-71
2023/07/18 10:25:08;;;;;;;2.95;1.00;;;;;;;20.14;49.88;101712.81;5132556;27;20046;-72
2023/07/18 10:27:44;;;;;;;3.40;0.88;;;;;;;20.08;50.97;101713.91;5131299;27;20035;-71
2023/07/18 10:30:10;;;;;;;2.80;0.93;;;;;;;20.03;50.63;101706.47;5135483;27;20110;-72
2023/07/18 10:32:39;;;;;;;3.22;0.80;;;;;;;20.16;51.74;101707.91;5134139;27;20044;-71
2023/07/18 10:35:09;;;;;;;1.33;0.60;;;;;;;20.09;50.43;101705.38;5135975;27;20030;-71
2023/07/18 10:37:36;;;;;;;2.67;0.65;;;;;;;20.23;50.32;101700.25;5117026;27;20469;-72
2023/07/18 10:40:08;;;;;;;1.83;0.70;;;;;;;20.43;53.60;101702.22;5135824;27;20027;-71
2023/07/18 10:42:34;;;;;;;2.63;0.95;;;;;;;20.49;51.43;101701.13;5133383;27;20039;-71
2023/07/18 10:45:06;;;;;;;4.22;0.90;;;;;;;20.49;50.55;101703.06;5131299;27;20079;-72
2023/07/18 10:47:37;;;;;;;2.75;1.05;;;;;;;20.53;50.23;101695.91;5135016;27;20045;-71
2023/07/18 10:50:06;;;;;;;2.45;0.82;;;;;;;20.65;52.09;101693.78;5138573;27;20026;-70
2023/07/18 10:52:32;;;;;;;1.63;0.70;;;;;;;20.82;51.45;101696.28;5134707;27;20023;-72
2023/07/18 10:54:59;;;;;;;2.78;0.77;;;;;;;20.77;50.84;101699.00;5133692;27;20375;-72
2023/07/18 10:57:32;;;;;;;2.55;1.00;;;;;;;20.64;49.23;101689.34;5116402;27;20030;-73
2023/07/18 10:59:59;;;;;;;3.50;1.23;;;;;;;20.63;51.10;101684.94;5116839;27;20031;-73
2023/07/18 11:02:26;;;;;;;1.65;0.80;;;;;;;20.72;50.92;101690.75;5112029;27;20026;-73
2023/07/18 11:04:53;;;;;;;5.40;1.10;;;;;;;20.71;49.40;101686.34;5135122;27;20034;-74
2023/07/18 11:07:33;;;;;;;3.47;1.30;;;;;;;20.93;51.58;101696.28;5116108;27;20115;-74
2023/07/18 11:09:59;;;;;;;3.75;1.00;;;;;;;20.96;49.24;101693.78;5134350;27;20110;-74
2023/07/18 11:12:29;;;;;;;5.60;1.20;;;;;;;21.06;49.66;101691.06;5115205;27;20023;-74
2023/07/18 11:14:57;;;;;;;1.85;1.00;;;;;;;21.22;50.39;101678.09;5116396;27;20023;-73
2023/07/18 11:17:22;;;;;;;5.40;1.40;;;;;;;21.20;50.00;101679.50;5113178;27;20030;-73
2023/07/18 11:19:48;;;;;;;4.40;1.10;;;;;;;21.23;49.91;101678.94;5116342;27;20026;-72
2023/07/18 11:22:14;;;;;;;6.03;1.25;;;;;;;21.23;48.95;101673.44;5114499;27;20021;-74
2023/07/18 11:24:51;;;;;;;6.75;1.27;;;;;;;21.30;48.97;101675.88;5115811;27;20026;-77
2023/07/18 11:27:22;;;;;;;4.20;1.17;;;;;;;21.45;48.95;101664.03;5110246;28;20015;-71
2023/07/18 11:29:58;;;;;;;5.50;1.42;;;;;;;21.49;48.23;101670.63;5113933;28;20027;-74
2023/07/18 11:32:39;;;;;;;4.25;0.98;;;;;;;21.51;48.54;101662.94;5113590;28;20020;-74
2023/07/18 11:35:18;;;;;;;3.28;0.90;;;;;;;21.66;46.97;101668.41;5106836;27;20171;-75
2023/07/18 11:37:46;;;;;;;2.92;1.15;;;;;;;21.83;46.65;101668.09;5115396;27;20076;-74
2023/07/18 11:40:19;;;;;;;1.98;0.70;;;;;;;21.88;47.41;101668.06;5115376;27;20031;-71
2023/07/18 11:42:56;;;;;;;4.13;1.10;;;;;;;22.03;47.65;101660.84;5133781;27;20023;-70
2023/07/18 11:45:25;;;;;;;2.70;1.15;;;;;;;22.29;46.88;101651.31;5133613;27;20367;-70
2023/07/18 11:47:52;;;;;;;1.42;0.70;;;;;;;22.32;45.65;101655.47;5132841;27;20126;-70
2023/07/18 11:50:18;;;;;;;3.67;1.23;;;;;;;22.44;46.40;101650.41;5129327;27;20023;-71
2023/07/18 11:52:49;;;;;;;2.13;0.80;;;;;;;22.22;43.01;101656.34;5132052;27;20098;-72
2023/07/18 11:55:16;;;;;;;3.05;1.00;;;;;;;22.10;43.00;101644.78;5115201;27;20030;-70
2023/07/18 11:57:41;;;;;;;1.70;0.80;;;;;;;21.98;41.90;101647.88;5115195;27;20043;-71
2023/07/18 12:00:09;;;;;;;3.00;0.95;;;;;;;22.10;43.39;101644.78;5133516;27;20043;-70
2023/07/18 12:02:35;;;;;;;2.08;0.68;;;;;;;22.29;43.76;101640.28;5130853;27;20102;-73
2023/07/18 12:05:00;;;;;;;3.80;0.80;;;;;;;22.47;43.96;101638.81;5133523;27;20023;-70
2023/07/18 12:07:26;;;;;;;2.47;0.90;;;;;;;22.46;43.62;101628.91;5113376;27;20031;-71
2023/07/18 12:09:52;;;;;;;1.77;0.77;;;;;;;22.42;43.22;101635.25;5114814;27;20088;-73
2023/07/18 12:12:21;;;;;;;4.47;0.90;;;;;;;22.59;44.00;101640.41;5113031;27;20026;-75
2023/07/18 12:14:46;;;;;;;2.35;0.80;;;;;;;22.72;43.30;101642.50;5114364;27;20022;-72
2023/07/18 12:17:12;;;;;;;2.38;0.70;;;;;;;22.89;42.98;101646.78;5119861;27;20026;-72
2023/07/18 12:19:37;;;;;;;3.17;0.82;;;;;;;22.92;41.28;101640.69;5127816;27;20360;-71
2023/07/18 12:22:03;;;;;;;4.50;0.90;;;;;;;23.01;42.05;101636.19;5129832;27;20034;-72
2023/07/18 12:24:28;;;;;;;5.05;1.02;;;;;;;23.12;43.21;101635.00;5109128;28;20034;-75
2023/07/18 12:26:54;;;;;;;2.60;0.90;;;;;;;23.59;44.02;101632.56;5119423;27;20020;-72
2023/07/18 12:29:19;;;;;;;2.75;0.90;;;;;;;23.48;42.63;101642.09;5115147;28;20036;-71
2023/07/18 12:31:49;;;;;;;5.25;1.02;;;;;;;23.50;41.46;101635.16;5112620;28;20115;-71
2023/07/18 12:34:16;;;;;;;3.95;1.10;;;;;;;23.74;41.50;101630.75;5113027;28;20375;-71
2023/07/18 12:36:41;;;;;;;1.50;0.70;;;;;;;24.00;40.73;101622.97;5105214;28;20107;-70
2023/07/18 12:39:06;;;;;;;4.03;0.70;;;;;;;24.05;39.48;101615.44;5105594;28;20030;-74
2023/07/18 12:41:32;;;;;;;1.65;0.60;;;;;;;24.01;39.45;101614.38;5129426;27;20058;-72
2023/07/18 12:43:57;;;;;;;1.55;0.70;;;;;;;24.21;40.66;101621.56;5130763;27;20019;-74
2023/07/18 12:46:26;;;;;;;1.38;0.80;;;;;;;24.45;40.50;101614.31;5109675;28;20510;-74
2023/07/18 12:48:52;;;;;;;2.88;0.90;;;;;;;24.46;38.79;101616.78;5133370;28;20486;-73
2023/07/18 12:51:18;;;;;;;1.67;0.60;;;;;;;24.59;39.15;101610.50;5109484;28;20474;-73
2023/07/18 12:53:43;;;;;;;1.83;0.65;;;;;;;24.71;38.78;101612.78;5133011;28;20114;-71
2023/07/18 12:56:08;;;;;;;1.38;0.52;;;;;;;24.62;37.01;101613.78;5131601;28;20061;-75
2023/07/18 12:58:34;;;;;;;3.55;0.80;;;;;;;24.44;38.38;101602.41;5130961;28;20092;-77
2023/07/18 13:00:59;;;;;;;3.65;1.10;;;;;;;24.36;39.15;101587.31;5112601;28;20423;-75
2023/07/18 13:03:24;;;;;;;2.92;0.85;;;;;;;24.27;37.93;101585.53;5114715;28;20059;-73
2023/07/18 13:05:50;;;;;;;2.63;1.00;;;;;;;24.32;38.16;101580.75;5133367;28;20034;-73
2023/07/18 13:08:15;;;;;;;1.30;0.88;;;;;;;24.48;37.88;101580.50;5133280;28;20087;-73
2023/07/18 13:10:40;;;;;;;2.70;0.68;;;;;;;24.39;37.04;101575.66;5131699;28;20031;-71
2023/07/18 13:13:06;;;;;;;2.33;0.70;;;;;;;24.52;37.39;101574.06;5129433;28;20039;-74
2023/07/18 13:15:31;;;;;;;1.70;0.93;;;;;;;24.66;37.41;101551.19;5107909;28;20056;-71
2023/07/18 13:17:57;;;;;;;1.75;0.80;;;;;;;24.71;36.00;101549.13;5111398;28;20028;-72
2023/07/18 13:20:22;;;;;;;2.75;0.80;;;;;;;24.71;36.90;101551.91;5094413;28;20027;-78
2023/07/18 13:22:47;;;;;;;2.25;1.00;;;;;;;24.72;36.27;101549.97;5111039;28;20070;-73
2023/07/18 13:25:14;;;;;;;3.58;0.88;;;;;;;24.91;36.55;101550.72;5111326;28;20024;-72
2023/07/18 13:27:39;;;;;;;1.98;0.70;;;;;;;24.86;35.42;101548.03;5111066;28;20451;-71
2023/07/18 13:30:06;;;;;;;2.38;0.80;;;;;;;24.85;33.92;101549.19;5115603;28;20041;-68
2023/07/18 13:32:32;;;;;;;1.58;0.95;;;;;;;24.84;34.30;101546.72;5131786;28;20051;-72
2023/07/18 13:34:58;;;;;;;1.25;0.70;;;;;;;25.05;36.56;101547.97;5132744;27;20485;-70
2023/07/18 13:37:23;;;;;;;4.40;0.95;;;;;;;25.08;33.74;101538.22;5125548;27;20039;-73
2023/07/18 13:39:49;;;;;;;1.25;0.70;;;;;;;25.44;34.73;101540.31;5116088;28;20470;-70
2023/07/18 13:42:14;;;;;;;1.15;0.80;;;;;;;25.52;32.80;101528.47;5132263;27;20056;-69
2023/07/18 13:44:39;;;;;;;1.60;0.80;;;;;;;25.65;32.75;101530.41;5101087;28;20031;-70
2023/07/18 13:47:05;;;;;;;1.83;1.00;;;;;;;25.90;33.08;101519.88;5132610;27;20035;-71
2023/07/18 13:49:31;;;;;;;1.42;0.85;;;;;;;26.03;33.02;101520.16;5136574;27;20482;-69
2023/07/18 13:51:57;;;;;;;2.08;0.75;;;;;;;25.94;32.87;101514.53;5135538;27;20038;-70
2023/07/18 13:54:22;;;;;;;2.40;0.80;;;;;;;25.78;31.08;101514.06;5137657;27;20465;-68
2023/07/18 13:56:48;;;;;;;2.13;0.75;;;;;;;25.67;31.53;101507.94;5145408;27;20038;-71
2023/07/18 13:59:13;;;;;;;2.38;1.27;;;;;;;25.70;32.65;101509.25;5136508;27;20083;-71
2023/07/18 14:01:39;;;;;;;1.65;0.73;;;;;;;25.48;33.12;101513.59;5133525;27;20072;-69
2023/07/18 14:04:04;;;;;;;2.25;0.65;;;;;;;25.28;34.19;101521.19;5136547;27;20025;-69
2023/07/18 14:06:29;;;;;;;2.20;0.90;;;;;;;25.31;33.72;101502.34;5136286;27;20102;-70
2023/07/18 14:08:55;;;;;;;2.08;0.95;;;;;;;25.33;34.19;101511.16;5136053;27;20034;-70
2023/07/18 14:11:20;;;;;;;1.27;0.68;;;;;;;25.52;34.68;101503.53;5134403;27;20023;-68
2023/07/18 14:13:46;;;;;;;2.85;0.80;;;;;;;25.51;33.98;101507.44;5125384;27;20070;-70
2023/07/18 14:16:12;;;;;;;1.40;0.93;;;;;;;25.47;33.42;101506.44;5130593;27;20042;-69
2023/07/18 14:18:37;;;;;;;3.67;1.02;;;;;;;25.17;33.09;101494.84;5135428;27;20027;-73
2023/07/18 14:21:03;;;;;;;3.15;0.80;;;;;;;25.54;33.57;101489.38;5117721;27;20030;-75
2023/07/18 14:23:28;;;;;;;3.92;1.00;;;;;;;25.36;32.65;101485.59;5136356;27;20027;-69
2023/07/18 14:25:54;;;;;;;1.30;0.85;;;;;;;25.52;33.40;101483.34;5135946;27;20023;-69
2023/07/18 14:28:20;;;;;;;1.35;0.90;;;;;;;25.76;34.03;101485.84;5135892;27;20477;-70
2023/07/18 14:30:46;;;;;;;1.40;0.90;;;;;;;25.60;33.18;101494.47;5131914;27;20031;-70
2023/07/18 14:33:13;;;;;;;1.75;0.80;;;;;;;25.95;34.49;101483.72;5135871;27;20030;-70
2023/07/18 14:35:41;;;;;;;2.10;1.10;;;;;;;25.88;31.67;101486.09;5105574;28;20052;-68
2023/07/18 14:38:07;;;;;;;4.95;0.80;;;;;;;25.85;32.92;101486.72;5133222;27;20062;-69
2023/07/18 14:40:32;;;;;;;1.40;0.73;;;;;;;25.89;32.01;101486.91;5135518;27;20490;-71
2023/07/18 14:42:58;;;;;;;2.20;0.70;;;;;;;25.84;32.16;101479.53;5133204;27;20062;-72
2023/07/18 14:45:23;;;;;;;1.10;0.70;;;;;;;26.02;32.65;101477.75;5135573;27;20111;-69
2023/07/18 14:47:48;;;;;;;2.97;0.88;;;;;;;25.90;31.62;101472.72;5130037;27;20137;-73
2023/07/18 14:50:15;;;;;;;1.63;0.80;;;;;;;26.05;32.62;101470.75;5134254;27;20042;-70
2023/07/18 14:52:40;;;;;;;1.17;0.60;;;;;;;26.29;31.87;101470.44;5135342;27;20031;-70
2023/07/18 14:55:06;;;;;;;3.58;0.75;;;;;;;26.46;31.44;101464.97;5104389;28;20718;-69
2023/07/18 14:57:31;;;;;;;2.25;0.80;;;;;;;26.40;30.18;101469.00;5129150;27;20374;-73
2023/07/18 14:59:56;;;;;;;3.35;0.95;;;;;;;26.24;29.85;101467.78;5103965;27;20068;-69
2023/07/18 15:02:22;;;;;;;2.55;0.90;;;;;;;26.31;30.50;101468.16;5133003;27;20059;-69
2023/07/18 15:04:47;;;;;;;2.08;0.90;;;;;;;26.28;30.47;101458.50;5135033;27;20071;-70
2023/07/18 15:07:13;;;;;;;2.53;1.15;;;;;;;26.46;30.70;101459.41;5132575;27;20104;-66
2023/07/18 15:09:38;;;;;;;3.30;1.05;;;;;;;26.51;30.78;101450.13;5119825;27;20039;-66
2023/07/18 15:12:04;;;;;;;2.55;1.00;;;;;;;26.62;31.15;101445.94;5135464;27;20064;-66
2023/07/18 15:14:29;;;;;;;1.73;0.95;;;;;;;26.94;30.70;101445.94;5131860;27;20039;-66
2023/07/18 15:16:56;;;;;;;1.48;0.80;;;;;;;27.11;29.64;101447.94;5134875;27;20027;-66
2023/07/18 15:19:21;;;;;;;3.65;0.90;;;;;;;27.37;30.92;101443.28;5135045;27;20054;-66
2023/07/18 15:21:46;;;;;;;1.45;0.60;;;;;;;27.53;30.46;101440.03;5134732;27;20459;-66
2023/07/18 15:24:12;;;;;;;2.63;0.82;;;;;;;27.61;28.76;101435.59;5128853;27;20062;-66
2023/07/18 15:26:37;;;;;;;1.80;0.82;;;;;;;27.27;28.55;101438.00;5132168;27;20113;-67
2023/07/18 15:29:03;;;;;;;1.48;1.00;;;;;;;27.40;28.33;101439.00;5134682;27;20028;-66
2023/07/18 15:31:29;;;;;;;5.93;0.90;;;;;;;27.46;28.78;101448.03;5116079;27;20076;-67
2023/07/18 15:33:54;;;;;;;1.77;0.87;;;;;;;27.17;27.64;101438.31;5130820;27;20027;-67
2023/07/18 15:36:20;;;;;;;1.27;0.77;;;;;;;27.27;28.01;101438.00;5134650;27;20311;-69
2023/07/18 15:38:45;;;;;;;1.73;0.88;;;;;;;27.46;28.75;101434.13;5134327;27;20140;-73
2023/07/18 15:41:10;;;;;;;0.87;0.87;;;;;;;28.34;27.76;101426.50;5135049;27;20369;-67
2023/07/18 15:43:35;;;;;;;1.77;0.90;;;;;;;29.05;26.57;101423.09;5131596;27;20302;-67
2023/07/18 15:46:02;;;;;;;2.65;0.82;;;;;;;29.96;27.27;101424.56;5132079;27;20322;-67
2023/07/18 15:48:27;;;;;;;4.10;1.10;;;;;;;30.52;26.35;101416.53;5107543;27;20484;-66
2023/07/18 15:50:53;;;;;;;1.70;1.10;;;;;;;30.53;25.09;101415.38;5113608;28;20106;-66
2023/07/18 15:53:18;;;;;;;1.63;0.80;;;;;;;30.83;24.78;101423.53;5127378;27;20031;-71
2023/07/18 15:55:43;;;;;;;2.03;1.15;;;;;;;30.47;25.12;101413.97;5131725;27;20033;-66
2023/07/18 15:58:09;;;;;;;2.42;1.00;;;;;;;30.64;24.73;101406.53;5133197;27;20023;-66
